Aérodrome :
LOGIN :

S'inscrire | Disclaimer

   EN    FR    IT 

 










Légende :    VFR   VFR Marginal   IFR   IFR Intensif   IFR Très Intensif
Visi : 
Plafond : 
>= 8 km
>= 3000ft
5 à 8 km
1000 à 3000 ft
1500m à 5 km
500 à 1000 ft
800 à 1500m
200 à 500 ft
< 800m
< 200 ft
Symboles :   Orages  Brouillard  Fortes neiges  Fortes précipitations  Vent > 20 kt
SIGMETs :   Divers  Orages  Givrage  Turbulence  Onde Orograph.  Cendres Volcan.







- Altitude de l'aérodrome : 1046 ft
- Code IATA : NUE


EDDN - Nuremberg

DERNIER METAR :
  • 280020Z VRB02KT 9999 MIFG SCT033 BKN130 16/16 Q1010

METARs EXPIRÉS :
  • 272350Z VRB01KT 9999 -SHRA SCT035 BKN120 16/16 Q1010
  • 272320Z 11003KT 9999 -SHRA FEW040 SCT070 OVC110 16/15 Q1010
  • 272250Z 32001KT 9999 FEW035 SCT060 OVC120 17/16 Q1010
  • 272220Z 20004KT 140V250 9999 -SHRA FEW033TCU SCT060 BKN090 17/16 Q1010 RERA
  • 272210Z 19006KT 160V230 9999 -SHRA SCT030TCU SCT060 BKN080 17/16 Q1010 RERA
  • 272150Z 20003KT 170V250 9999 -SHRA SCT030TCU BKN080 17/16 Q1010
  • 272123Z VRB02KT 9999 -SHRA SCT033TCU BKN080 18/16 Q1010

TAF TAF EDDN
Valide du 28 à 00h jusqu'au 29 à 00h UTC


272300Z 2800/2824 22004KT 9999 SCT015 BKN030
BECMG 2805/2807 27010KT
BECMG 2817/2819 VRB03KT
Pas de NOTAMs connus pour ce terrain.



MET'MAP, la Météo Aéronautique d'un coup d'oeil ! - Copyright ORBIFLY Décembre 2007 - Disclaimer

ORBIFLY MET'MAP TEAM :

Programmation & Développement : Alexandra Zaïnal
Conception & Développement : Baudouin d'Aumeries
Co-Programmation & Développement : Marc-Olivier Méhu
Soutien technique & logistique : Manuel Goepfert

Contact : metmap@orbifly.com




SOURCES & CREDITS :

   NOAA